sensor_id;sensor_type;location;lat;lon;timestamp;P1;durP1;ratioP1;P2;durP2;ratioP2
61739;SDS011;47645;45.288;12.038;2023-07-24T00:03:14;7.6;;;4.6;;
61739;SDS011;47645;45.288;12.038;2023-07-24T00:13:16;7.4;;;5.3;;
61739;SDS011;47645;45.288;12.038;2023-07-24T00:23:18;10.0;;;5.4;;
61739;SDS011;47645;45.288;12.038;2023-07-24T00:33:19;11.0;;;7.0;;
61739;SDS011;47645;45.288;12.038;2023-07-24T00:43:20;13.0;;;7.3;;
61739;SDS011;47645;45.288;12.038;2023-07-24T00:53:22;12.3;;;7.6;;
61739;SDS011;47645;45.288;12.038;2023-07-24T01:03:25;10.8;;;6.5;;
61739;SDS011;47645;45.288;12.038;2023-07-24T01:13:25;12.8;;;7.8;;
61739;SDS011;47645;45.288;12.038;2023-07-24T01:23:37;12.2;;;7.7;;
61739;SDS011;47645;45.288;12.038;2023-07-24T01:33:28;14.4;;;9.4;;
61739;SDS011;47645;45.288;12.038;2023-07-24T01:48:30;16.0;;;9.4;;
61739;SDS011;47645;45.288;12.038;2023-07-24T01:53:31;15.8;;;10.7;;
61739;SDS011;47645;45.288;12.038;2023-07-24T02:03:33;14.4;;;10.4;;
61739;SDS011;47645;45.288;12.038;2023-07-24T02:13:34;16.9;;;12.1;;
61739;SDS011;47645;45.288;12.038;2023-07-24T02:23:36;16.1;;;11.6;;
61739;SDS011;47645;45.288;12.038;2023-07-24T02:33:37;18.0;;;12.1;;
61739;SDS011;47645;45.288;12.038;2023-07-24T02:43:39;18.9;;;11.5;;
61739;SDS011;47645;45.288;12.038;2023-07-24T02:53:40;18.6;;;11.1;;
61739;SDS011;47645;45.288;12.038;2023-07-24T03:03:42;16.2;;;10.1;;
61739;SDS011;47645;45.288;12.038;2023-07-24T03:13:43;12.3;;;8.4;;
61739;SDS011;47645;45.288;12.038;2023-07-24T03:23:45;16.3;;;11.1;;
61739;SDS011;47645;45.288;12.038;2023-07-24T03:33:46;14.6;;;9.3;;
61739;SDS011;47645;45.288;12.038;2023-07-24T03:43:47;14.8;;;9.4;;
61739;SDS011;47645;45.288;12.038;2023-07-24T03:53:49;16.9;;;10.8;;
61739;SDS011;47645;45.288;12.038;2023-07-24T04:03:51;19.0;;;10.6;;
61739;SDS011;47645;45.288;12.038;2023-07-24T04:13:52;16.8;;;10.9;;
61739;SDS011;47645;45.288;12.038;2023-07-24T04:23:53;16.8;;;10.1;;
61739;SDS011;47645;45.288;12.038;2023-07-24T04:33:55;15.2;;;9.8;;
61739;SDS011;47645;45.288;12.038;2023-07-24T04:43:56;18.2;;;11.0;;
61739;SDS011;47645;45.288;12.038;2023-07-24T04:53:58;18.7;;;11.2;;
61739;SDS011;47645;45.288;12.038;2023-07-24T05:03:59;16.3;;;11.3;;
61739;SDS011;47645;45.288;12.038;2023-07-24T05:14:01;15.8;;;10.0;;
61739;SDS011;47645;45.288;12.038;2023-07-24T05:24:02;17.4;;;10.2;;
61739;SDS011;47645;45.288;12.038;2023-07-24T05:34:04;17.6;;;9.6;;
61739;SDS011;47645;45.288;12.038;2023-07-24T05:44:05;16.3;;;9.9;;
61739;SDS011;47645;45.288;12.038;2023-07-24T05:54:07;13.1;;;8.1;;
61739;SDS011;47645;45.288;12.038;2023-07-24T06:04:08;18.6;;;10.6;;
61739;SDS011;47645;45.288;12.038;2023-07-24T06:14:10;17.8;;;10.3;;
61739;SDS011;47645;45.288;12.038;2023-07-24T06:24:12;17.1;;;9.5;;
61739;SDS011;47645;45.288;12.038;2023-07-24T06:34:13;16.0;;;10.3;;
61739;SDS011;47645;45.288;12.038;2023-07-24T06:44:14;18.7;;;10.3;;
61739;SDS011;47645;45.288;12.038;2023-07-24T06:54:16;14.1;;;8.3;;
61739;SDS011;47645;45.288;12.038;2023-07-24T07:04:17;13.8;;;7.9;;
61739;SDS011;47645;45.288;12.038;2023-07-24T07:14:19;15.1;;;7.6;;
61739;SDS011;47645;45.288;12.038;2023-07-24T07:24:21;12.6;;;7.1;;
61739;SDS011;47645;45.288;12.038;2023-07-24T07:34:22;12.0;;;6.1;;
61739;SDS011;47645;45.288;12.038;2023-07-24T07:44:24;10.5;;;6.3;;
61739;SDS011;47645;45.288;12.038;2023-07-24T07:54:25;12.6;;;6.6;;
61739;SDS011;47645;45.288;12.038;2023-07-24T08:04:27;13.2;;;7.1;;
61739;SDS011;47645;45.288;12.038;2023-07-24T08:14:29;12.3;;;7.3;;
61739;SDS011;47645;45.288;12.038;2023-07-24T08:24:33;11.7;;;6.9;;
61739;SDS011;47645;45.288;12.038;2023-07-24T08:34:32;11.1;;;7.1;;
61739;SDS011;47645;45.288;12.038;2023-07-24T08:44:33;10.7;;;6.4;;
61739;SDS011;47645;45.288;12.038;2023-07-24T08:59:36;14.7;;;6.7;;
61739;SDS011;47645;45.288;12.038;2023-07-24T09:04:37;12.3;;;6.5;;
61739;SDS011;47645;45.288;12.038;2023-07-24T09:14:39;13.4;;;6.7;;
61739;SDS011;47645;45.288;12.038;2023-07-24T09:24:49;12.6;;;6.9;;
61739;SDS011;47645;45.288;12.038;2023-07-24T09:34:42;11.3;;;6.0;;
61739;SDS011;47645;45.288;12.038;2023-07-24T09:44:44;10.9;;;6.4;;
61739;SDS011;47645;45.288;12.038;2023-07-24T09:54:48;11.1;;;5.9;;
61739;SDS011;47645;45.288;12.038;2023-07-24T10:04:48;12.2;;;5.9;;
61739;SDS011;47645;45.288;12.038;2023-07-24T10:14:49;10.9;;;6.3;;
61739;SDS011;47645;45.288;12.038;2023-07-24T10:24:51;14.6;;;6.3;;
61739;SDS011;47645;45.288;12.038;2023-07-24T10:34:57;12.2;;;6.6;;
61739;SDS011;47645;45.288;12.038;2023-07-24T10:45:01;12.9;;;6.4;;
61739;SDS011;47645;45.288;12.038;2023-07-24T10:54:59;13.4;;;6.3;;
61739;SDS011;47645;45.288;12.038;2023-07-24T11:04:58;11.8;;;5.7;;
61739;SDS011;47645;45.288;12.038;2023-07-24T11:15:00;10.8;;;6.1;;
61739;SDS011;47645;45.288;12.038;2023-07-24T11:25:02;13.1;;;6.6;;
61739;SDS011;47645;45.288;12.038;2023-07-24T11:35:04;12.0;;;6.7;;
61739;SDS011;47645;45.288;12.038;2023-07-24T11:40:09;11.7;;;6.6;;
61739;SDS011;47645;45.288;12.038;2023-07-24T11:50:06;11.1;;;6.1;;
61739;SDS011;47645;45.288;12.038;2023-07-24T12:00:18;10.3;;;6.2;;
61739;SDS011;47645;45.288;12.038;2023-07-24T12:10:09;13.4;;;6.2;;
61739;SDS011;47645;45.288;12.038;2023-07-24T12:20:11;15.1;;;6.8;;
61739;SDS011;47645;45.288;12.038;2023-07-24T12:30:13;13.6;;;6.4;;
61739;SDS011;47645;45.288;12.038;2023-07-24T12:40:15;13.7;;;6.9;;
61739;SDS011;47645;45.288;12.038;2023-07-24T12:50:17;13.8;;;6.5;;
61739;SDS011;47645;45.288;12.038;2023-07-24T13:00:18;11.3;;;6.1;;
61739;SDS011;47645;45.288;12.038;2023-07-24T13:10:20;14.0;;;6.4;;
61739;SDS011;47645;45.288;12.038;2023-07-24T13:20:22;10.2;;;6.0;;
61739;SDS011;47645;45.288;12.038;2023-07-24T13:30:24;15.5;;;6.7;;
61739;SDS011;47645;45.288;12.038;2023-07-24T13:40:26;14.5;;;6.5;;
61739;SDS011;47645;45.288;12.038;2023-07-24T13:50:28;10.0;;;5.4;;
61739;SDS011;47645;45.288;12.038;2023-07-24T14:00:30;12.6;;;6.4;;
61739;SDS011;47645;45.288;12.038;2023-07-24T14:10:32;12.5;;;6.0;;
61739;SDS011;47645;45.288;12.038;2023-07-24T14:20:34;16.7;;;6.4;;
61739;SDS011;47645;45.288;12.038;2023-07-24T14:30:36;13.1;;;6.0;;
61739;SDS011;47645;45.288;12.038;2023-07-24T14:40:39;12.5;;;6.3;;
61739;SDS011;47645;45.288;12.038;2023-07-24T14:50:40;11.8;;;6.2;;
61739;SDS011;47645;45.288;12.038;2023-07-24T15:00:42;14.0;;;6.3;;
61739;SDS011;47645;45.288;12.038;2023-07-24T15:10:44;15.6;;;7.0;;
61739;SDS011;47645;45.288;12.038;2023-07-24T15:20:46;11.9;;;6.3;;
61739;SDS011;47645;45.288;12.038;2023-07-24T15:30:48;13.0;;;6.0;;
61739;SDS011;47645;45.288;12.038;2023-07-24T15:40:50;12.9;;;7.2;;
61739;SDS011;47645;45.288;12.038;2023-07-24T15:50:51;12.7;;;6.8;;
61739;SDS011;47645;45.288;12.038;2023-07-24T16:00:53;12.1;;;6.2;;
61739;SDS011;47645;45.288;12.038;2023-07-24T16:10:56;13.6;;;6.7;;
61739;SDS011;47645;45.288;12.038;2023-07-24T16:20:57;11.8;;;6.2;;
61739;SDS011;47645;45.288;12.038;2023-07-24T16:30:59;15.1;;;6.2;;
61739;SDS011;47645;45.288;12.038;2023-07-24T16:41:02;13.3;;;7.2;;
61739;SDS011;47645;45.288;12.038;2023-07-24T16:51:03;14.8;;;7.6;;
61739;SDS011;47645;45.288;12.038;2023-07-24T17:01:05;19.3;;;7.4;;
61739;SDS011;47645;45.288;12.038;2023-07-24T17:11:07;16.0;;;7.0;;
61739;SDS011;47645;45.288;12.038;2023-07-24T17:21:08;12.0;;;7.2;;
61739;SDS011;47645;45.288;12.038;2023-07-24T17:31:10;14.9;;;7.3;;
61739;SDS011;47645;45.288;12.038;2023-07-24T17:41:13;15.2;;;7.2;;
61739;SDS011;47645;45.288;12.038;2023-07-24T17:51:14;14.6;;;7.4;;
61739;SDS011;47645;45.288;12.038;2023-07-24T18:01:16;14.9;;;7.5;;
61739;SDS011;47645;45.288;12.038;2023-07-24T18:11:18;14.9;;;7.7;;
61739;SDS011;47645;45.288;12.038;2023-07-24T18:21:20;14.0;;;7.8;;
61739;SDS011;47645;45.288;12.038;2023-07-24T18:31:21;12.2;;;8.5;;
61739;SDS011;47645;45.288;12.038;2023-07-24T18:41:23;18.0;;;9.0;;
61739;SDS011;47645;45.288;12.038;2023-07-24T18:51:25;16.9;;;9.9;;
61739;SDS011;47645;45.288;12.038;2023-07-24T19:01:27;15.7;;;9.9;;
61739;SDS011;47645;45.288;12.038;2023-07-24T19:11:28;16.4;;;9.8;;
61739;SDS011;47645;45.288;12.038;2023-07-24T19:21:30;17.1;;;11.1;;
61739;SDS011;47645;45.288;12.038;2023-07-24T19:31:32;14.7;;;10.9;;
61739;SDS011;47645;45.288;12.038;2023-07-24T19:41:34;16.6;;;10.4;;
61739;SDS011;47645;45.288;12.038;2023-07-24T19:51:35;13.1;;;8.8;;
61739;SDS011;47645;45.288;12.038;2023-07-24T20:01:37;15.2;;;9.5;;
61739;SDS011;47645;45.288;12.038;2023-07-24T20:11:39;13.9;;;9.0;;
61739;SDS011;47645;45.288;12.038;2023-07-24T20:21:41;13.7;;;8.7;;
61739;SDS011;47645;45.288;12.038;2023-07-24T20:31:42;13.8;;;8.2;;
61739;SDS011;47645;45.288;12.038;2023-07-24T20:41:44;11.3;;;7.5;;
61739;SDS011;47645;45.288;12.038;2023-07-24T20:51:45;13.2;;;9.0;;
61739;SDS011;47645;45.288;12.038;2023-07-24T21:01:48;12.3;;;8.4;;
61739;SDS011;47645;45.288;12.038;2023-07-24T21:11:48;12.9;;;6.8;;
61739;SDS011;47645;45.288;12.038;2023-07-24T21:21:50;10.2;;;6.3;;
61739;SDS011;47645;45.288;12.038;2023-07-24T21:31:51;7.3;;;4.5;;
61739;SDS011;47645;45.288;12.038;2023-07-24T21:41:53;9.2;;;4.2;;
61739;SDS011;47645;45.288;12.038;2023-07-24T21:51:55;8.9;;;4.1;;
61739;SDS011;47645;45.288;12.038;2023-07-24T22:01:56;10.3;;;4.1;;
61739;SDS011;47645;45.288;12.038;2023-07-24T22:11:58;10.0;;;4.3;;
61739;SDS011;47645;45.288;12.038;2023-07-24T22:21:59;8.4;;;4.3;;
61739;SDS011;47645;45.288;12.038;2023-07-24T22:32:01;11.7;;;4.3;;
61739;SDS011;47645;45.288;12.038;2023-07-24T22:42:03;8.3;;;4.0;;
61739;SDS011;47645;45.288;12.038;2023-07-24T22:52:05;10.5;;;3.7;;
61739;SDS011;47645;45.288;12.038;2023-07-24T23:02:05;9.3;;;4.0;;
61739;SDS011;47645;45.288;12.038;2023-07-24T23:12:07;9.4;;;3.9;;
61739;SDS011;47645;45.288;12.038;2023-07-24T23:22:08;9.2;;;4.0;;
61739;SDS011;47645;45.288;12.038;2023-07-24T23:32:10;10.2;;;3.8;;
61739;SDS011;47645;45.288;12.038;2023-07-24T23:42:12;7.8;;;4.0;;
61739;SDS011;47645;45.288;12.038;2023-07-24T23:52:13;9.5;;;3.8;;
